Barnum, Minnesota
Current Conditions -  °F | °C
As of 11:13 AM on Thursday 27 Nov 2014 (Local Time) from KMZH Reporting Station
Clear Clear  
Wind Chill: -6°   Ceiling: Unl
Heat Index:   Visibility: 10mi
Dew Point: -6°   Wind: 5mph
Humidity: 66%   Direction: 320°NW
Pressure: 30.44"   Gusts: NA
Location:  46.5°N, 92.69°W
Report Text: KMZH 271713Z AUTO 32004KT 10SM CLR M16/M21 A3044 RMK AO2
Loading
Personal Weather Stations






























Interactive Weather Map New forecast layout! Learn more

10-Day Weather Forecast

Advertisements
Track Severe Weather on mobile